Aviation Digital Data Service (ADDS)

Output produced by METARs form (2318 UTC 18 October 2019)
found at http://www.aviationweather.gov/metar/data/
 
Forecast for: EPWA (WARSAW/OKECIE , PL)
Text: TAF EPWA 182030Z 1821/1921 18005KT CAVOK
Forecast period: 2100 UTC 18 October 2019 to 2100 UTC 19 October 2019
Forecast type: FROM: standard forecast or significant change
Winds: from the S (180 degrees) at 6 MPH (5 knots; 2.6 m/s)
Visibility: 6 or more miles 10+ km)
Ceiling: unknown
Clouds: missing
Weather: NSW  (no significant weather)
Text: PROB30 1900/1906 4000 BR
Forecast period: 0000 to 0600 UTC 19 October 2019
Forecast type: PROBABLE: 30 percent likelihood of the following during this time
Visibility: 2.49 miles (4.01 km)
Ceiling: unknown
Clouds: missing
Weather: BR  (mist)